createdAt,value
2018-12-20T00:01:40.313Z,78.00
2018-12-20T00:05:44.472Z,78.00
2018-12-20T00:09:48.628Z,78.30
2018-12-20T00:13:54.052Z,78.80
2018-12-20T00:17:58.210Z,79.30
2018-12-20T00:22:02.362Z,79.60
2018-12-20T00:26:06.650Z,80.00
2018-12-20T00:30:10.726Z,80.60
2018-12-20T00:34:14.798Z,80.70
2018-12-20T00:38:18.996Z,80.70
2018-12-20T00:42:23.092Z,81.60
2018-12-20T00:46:27.658Z,81.80
2018-12-20T00:50:31.901Z,82.70
2018-12-20T00:54:36.773Z,81.90
2018-12-20T00:58:40.862Z,81.40
2018-12-20T01:02:44.956Z,81.30
2018-12-20T01:06:49.326Z,81.70
2018-12-20T01:10:53.423Z,81.80
2018-12-20T01:14:57.711Z,82.40
2018-12-20T01:19:02.053Z,82.50
2018-12-20T01:23:06.121Z,83.10
2018-12-20T01:27:10.260Z,83.10
2018-12-20T01:31:14.401Z,82.60
2018-12-20T01:35:18.518Z,82.60
2018-12-20T01:39:22.704Z,81.80
2018-12-20T01:43:26.931Z,82.00
2018-12-20T01:47:31.975Z,81.90
2018-12-20T01:51:36.098Z,81.80
2018-12-20T01:55:40.299Z,81.30
2018-12-20T01:59:44.675Z,80.80
2018-12-20T02:03:49.562Z,80.90
2018-12-20T02:07:53.700Z,81.00
2018-12-20T02:11:57.890Z,80.90
2018-12-20T02:16:01.961Z,80.50
2018-12-20T02:20:06.276Z,80.40
2018-12-20T02:24:11.230Z,80.80
2018-12-20T02:28:15.507Z,80.70
2018-12-20T02:32:19.740Z,79.40
2018-12-20T02:36:24.067Z,79.30
2018-12-20T02:40:28.328Z,79.30
2018-12-20T02:44:32.446Z,79.20
2018-12-20T02:48:36.743Z,79.40
2018-12-20T02:52:41.135Z,79.10
2018-12-20T02:56:45.411Z,79.30
2018-12-20T03:00:49.607Z,79.20
2018-12-20T03:04:53.849Z,80.10
2018-12-20T03:08:58.136Z,80.00
2018-12-20T03:13:02.666Z,79.30
2018-12-20T03:17:07.316Z,80.00
2018-12-20T03:21:11.686Z,79.50
2018-12-20T03:25:15.861Z,79.90
2018-12-20T03:29:19.938Z,79.40
2018-12-20T03:33:24.427Z,78.90
2018-12-20T03:37:28.723Z,79.00
2018-12-20T03:41:33.093Z,80.40
2018-12-20T03:45:37.362Z,80.20
2018-12-20T03:49:41.638Z,80.50
2018-12-20T03:53:45.809Z,80.70
2018-12-20T03:57:50.071Z,80.90
2018-12-20T04:01:54.497Z,80.90
2018-12-20T04:05:58.819Z,80.80
2018-12-20T04:10:03.285Z,80.90
2018-12-20T04:14:07.510Z,80.70
2018-12-20T04:18:11.646Z,80.50
2018-12-20T04:22:15.978Z,80.60
2018-12-20T04:26:20.384Z,80.30
2018-12-20T04:30:24.808Z,80.00
2018-12-20T04:34:29.049Z,80.30
2018-12-20T04:38:33.322Z,80.00
2018-12-20T04:42:37.633Z,80.00
2018-12-20T04:46:41.726Z,80.00
2018-12-20T04:50:46.336Z,79.90
2018-12-20T04:54:50.397Z,79.50
2018-12-20T04:58:54.638Z,79.60
2018-12-20T05:02:58.954Z,79.30
2018-12-20T05:07:03.365Z,79.90
2018-12-20T05:11:07.518Z,79.90
2018-12-20T05:15:12.128Z,79.80
2018-12-20T05:19:16.325Z,79.50
2018-12-20T05:23:20.629Z,79.00
2018-12-20T05:27:25.416Z,79.20
2018-12-20T05:31:29.526Z,79.40
2018-12-20T05:35:33.627Z,79.50
2018-12-20T05:39:37.753Z,79.20
2018-12-20T05:43:41.933Z,78.60
2018-12-20T05:47:46.057Z,78.70
2018-12-20T05:51:50.362Z,79.30
2018-12-20T05:55:54.770Z,78.90
2018-12-20T05:59:59.203Z,79.30
2018-12-20T06:04:03.403Z,79.70
2018-12-20T06:08:07.594Z,79.80
2018-12-20T06:12:12.058Z,79.80
2018-12-20T06:16:16.385Z,79.90
2018-12-20T06:20:20.716Z,79.90
2018-12-20T06:24:25.692Z,79.70
2018-12-20T06:28:29.821Z,79.80
2018-12-20T06:32:33.933Z,79.40
2018-12-20T06:36:38.039Z,80.10
2018-12-20T06:40:42.117Z,80.00
2018-12-20T06:44:46.920Z,79.50
2018-12-20T06:48:51.049Z,80.50
2018-12-20T06:52:55.148Z,80.10
2018-12-20T06:56:59.296Z,80.10
2018-12-20T07:01:03.453Z,79.20
2018-12-20T07:05:07.642Z,79.00
2018-12-20T07:09:11.754Z,78.20
2018-12-20T07:13:15.827Z,78.20
2018-12-20T07:17:20.007Z,78.00
2018-12-20T07:21:24.109Z,77.80
2018-12-20T07:25:28.268Z,77.10
2018-12-20T07:29:32.370Z,76.30
2018-12-20T07:33:36.472Z,75.80
2018-12-20T07:37:40.601Z,75.50
2018-12-20T07:41:44.734Z,75.20
2018-12-20T07:45:48.893Z,74.50
2018-12-20T07:49:52.998Z,75.20
2018-12-20T07:53:57.106Z,75.40
2018-12-20T07:58:01.246Z,74.50
2018-12-20T08:02:05.341Z,74.00
2018-12-20T08:06:09.414Z,73.70
2018-12-20T08:10:14.839Z,74.20
2018-12-20T08:14:19.074Z,73.20
2018-12-20T08:18:24.025Z,73.40
2018-12-20T08:22:28.119Z,73.80
2018-12-20T08:26:32.349Z,73.00
2018-12-20T08:30:36.466Z,73.00
2018-12-20T08:34:40.577Z,72.50
2018-12-20T08:38:44.662Z,73.40
2018-12-20T08:42:48.759Z,73.90
2018-12-20T08:46:54.507Z,73.80
2018-12-20T08:50:59.671Z,74.30
2018-12-20T08:55:05.345Z,74.80
2018-12-20T08:59:09.433Z,75.70
2018-12-20T09:03:13.530Z,75.00
2018-12-20T09:07:17.625Z,74.00
2018-12-20T09:11:22.107Z,72.90
2018-12-20T09:15:26.261Z,74.00
2018-12-20T09:19:30.340Z,73.80
2018-12-20T09:23:34.446Z,73.50
2018-12-20T09:27:38.525Z,72.80
2018-12-20T09:31:42.673Z,74.20
2018-12-20T09:35:46.753Z,73.40
2018-12-20T09:39:50.829Z,74.00
2018-12-20T09:43:54.926Z,73.40
2018-12-20T09:48:04.338Z,72.30
2018-12-20T09:52:08.445Z,71.40
2018-12-20T09:56:12.684Z,70.50
2018-12-20T10:00:16.773Z,70.40
2018-12-20T10:04:20.848Z,69.20
2018-12-20T10:08:24.919Z,68.70
2018-12-20T10:12:29.013Z,64.30
2018-12-20T10:16:33.743Z,66.40
2018-12-20T10:20:37.829Z,67.00
2018-12-20T10:24:42.268Z,66.50
2018-12-20T10:28:46.672Z,66.30
2018-12-20T10:32:50.766Z,65.80
2018-12-20T10:36:54.975Z,65.70
2018-12-20T10:40:59.061Z,66.30
2018-12-20T10:45:03.209Z,65.50
2018-12-20T10:49:07.459Z,66.40
2018-12-20T10:53:11.537Z,67.00
2018-12-20T10:57:15.698Z,66.80
2018-12-20T11:01:25.253Z,66.60
2018-12-20T11:05:35.000Z,66.20
2018-12-20T11:09:44.529Z,65.80
2018-12-20T11:13:55.349Z,65.50
2018-12-20T11:17:59.429Z,66.50
2018-12-20T11:22:03.625Z,67.00
2018-12-20T11:26:07.697Z,67.50
2018-12-20T11:30:11.964Z,67.80
2018-12-20T11:34:16.079Z,67.20
2018-12-20T11:38:20.210Z,68.20
2018-12-20T11:42:24.334Z,68.40
2018-12-20T11:46:28.505Z,67.80
2018-12-20T11:50:32.589Z,68.00
2018-12-20T11:54:36.662Z,67.40
2018-12-20T11:58:40.743Z,67.30
2018-12-20T12:02:44.976Z,67.30
2018-12-20T12:06:49.076Z,68.00
2018-12-20T12:10:53.189Z,68.30
2018-12-20T12:14:57.277Z,68.00
2018-12-20T12:19:01.448Z,67.40
2018-12-20T12:23:05.578Z,65.50
2018-12-20T12:27:09.672Z,65.90
2018-12-20T12:31:13.756Z,66.10
2018-12-20T12:35:17.955Z,64.70
2018-12-20T12:39:22.062Z,65.20
2018-12-20T12:43:26.145Z,65.40
2018-12-20T12:47:35.701Z,64.80
2018-12-20T12:51:39.790Z,65.90
2018-12-20T12:55:43.879Z,65.50
2018-12-20T12:59:48.101Z,63.30
2018-12-20T13:03:52.229Z,62.30
2018-12-20T13:07:56.312Z,64.30
2018-12-20T13:12:00.417Z,60.50
2018-12-20T13:16:04.883Z,60.80
2018-12-20T13:20:10.124Z,59.30
2018-12-20T13:24:14.355Z,59.90
2018-12-20T13:28:18.583Z,60.00
2018-12-20T13:32:22.808Z,60.30
2018-12-20T13:36:26.876Z,60.60
2018-12-20T13:40:30.967Z,62.10
2018-12-20T13:44:35.053Z,64.60
2018-12-20T13:48:39.290Z,63.80
2018-12-20T13:52:43.391Z,63.40
2018-12-20T13:56:47.544Z,63.80
2018-12-20T14:00:52.887Z,63.00
2018-12-20T14:04:56.993Z,63.30
2018-12-20T14:09:01.368Z,62.80
2018-12-20T14:13:05.724Z,62.50
2018-12-20T14:17:09.849Z,63.30
2018-12-20T14:21:14.113Z,63.60
2018-12-20T14:25:18.209Z,65.40
2018-12-20T14:29:22.375Z,65.90
2018-12-20T14:33:26.455Z,65.90
2018-12-20T14:37:30.546Z,66.60
2018-12-20T14:41:34.649Z,66.10
2018-12-20T14:45:38.735Z,66.30
2018-12-20T14:49:42.891Z,66.20
2018-12-20T14:53:47.047Z,66.00
2018-12-20T14:57:52.102Z,66.50
2018-12-20T15:01:56.265Z,66.90
2018-12-20T15:06:00.362Z,67.20
2018-12-20T15:10:07.841Z,67.00
2018-12-20T15:14:11.929Z,66.40
2018-12-20T15:18:16.031Z,67.10
2018-12-20T15:22:20.184Z,68.20
2018-12-20T15:26:24.250Z,68.40
2018-12-20T15:30:28.401Z,68.80
2018-12-20T15:34:32.480Z,69.10
2018-12-20T15:38:36.560Z,69.40
2018-12-20T15:42:40.770Z,69.80
2018-12-20T15:46:45.009Z,70.30
2018-12-20T15:50:49.112Z,70.30
2018-12-20T15:54:53.192Z,70.40
2018-12-20T15:58:57.307Z,70.60
2018-12-20T16:03:01.348Z,70.50
2018-12-20T16:07:05.563Z,70.60
2018-12-20T16:11:09.657Z,70.70
2018-12-20T16:15:13.726Z,71.00
2018-12-20T16:19:17.836Z,70.60
2018-12-20T16:23:21.909Z,70.20
2018-12-20T16:27:27.014Z,69.90
2018-12-20T16:31:31.633Z,70.50
2018-12-20T16:35:35.713Z,71.60
2018-12-20T16:39:39.853Z,71.90
2018-12-20T16:43:43.910Z,72.40
2018-12-20T16:47:48.116Z,71.20
2018-12-20T16:51:52.305Z,71.40
2018-12-20T16:55:56.466Z,72.10
2018-12-20T17:00:00.636Z,71.80
2018-12-20T17:04:04.721Z,72.30
2018-12-20T17:08:08.886Z,73.40
2018-12-20T17:12:14.030Z,74.10
2018-12-20T17:16:18.106Z,74.00
2018-12-20T17:20:22.190Z,74.00
2018-12-20T17:24:26.269Z,73.60
2018-12-20T17:28:30.371Z,73.10
2018-12-20T17:32:34.489Z,72.90
2018-12-20T17:36:38.652Z,73.00
2018-12-20T17:40:42.733Z,73.50
2018-12-20T17:44:46.889Z,72.90
2018-12-20T17:48:51.016Z,72.70
2018-12-20T17:52:55.100Z,72.50
2018-12-20T17:56:59.264Z,73.10
2018-12-20T18:01:03.417Z,73.20
2018-12-20T18:05:07.621Z,73.50
2018-12-20T18:09:12.265Z,72.70
2018-12-20T18:13:16.349Z,72.80
2018-12-20T18:17:21.599Z,72.70
2018-12-20T18:21:25.663Z,71.20
2018-12-20T18:25:29.773Z,71.40
2018-12-20T18:29:35.426Z,71.50
2018-12-20T18:33:39.583Z,70.40
2018-12-20T18:37:43.642Z,70.40
2018-12-20T18:41:47.749Z,70.10
2018-12-20T18:45:51.906Z,70.60
2018-12-20T18:49:56.019Z,71.30
2018-12-20T18:54:00.262Z,71.00
2018-12-20T18:58:04.362Z,71.50
2018-12-20T19:02:09.485Z,71.60
2018-12-20T19:06:13.566Z,71.50
2018-12-20T19:10:18.881Z,70.60
2018-12-20T19:14:23.028Z,70.50
2018-12-20T19:18:27.348Z,70.30
2018-12-20T19:22:31.456Z,70.40
2018-12-20T19:26:35.604Z,71.10
2018-12-20T19:30:39.728Z,70.60
2018-12-20T19:34:43.782Z,69.90
2018-12-20T19:38:48.012Z,69.80
2018-12-20T19:42:52.106Z,70.20
2018-12-20T19:46:56.938Z,70.50
2018-12-20T19:51:01.004Z,70.50
2018-12-20T19:55:06.236Z,69.80
2018-12-20T19:59:10.333Z,69.90
2018-12-20T20:03:14.417Z,69.00
2018-12-20T20:07:18.589Z,69.50
2018-12-20T20:11:22.963Z,68.90
2018-12-20T20:15:27.146Z,69.30
2018-12-20T20:19:31.239Z,70.40
2018-12-20T20:23:35.360Z,69.90
2018-12-20T20:27:39.443Z,69.80
2018-12-20T20:31:43.657Z,69.20
2018-12-20T20:35:47.829Z,69.50
2018-12-20T20:39:51.930Z,69.40
2018-12-20T20:43:56.027Z,69.50
2018-12-20T20:48:00.929Z,69.70
2018-12-20T20:52:04.989Z,69.70
2018-12-20T20:56:09.104Z,70.40
2018-12-20T21:00:13.903Z,70.50
2018-12-20T21:04:18.077Z,70.10
2018-12-20T21:08:23.364Z,70.20
2018-12-20T21:12:27.534Z,69.60
2018-12-20T21:16:31.629Z,69.30
2018-12-20T21:20:35.716Z,68.90
2018-12-20T21:24:39.859Z,68.90
2018-12-20T21:28:44.948Z,67.40
2018-12-20T21:32:49.004Z,68.90
2018-12-20T21:36:53.126Z,70.20
2018-12-20T21:40:57.413Z,70.10
2018-12-20T21:45:01.475Z,70.90
2018-12-20T21:49:05.551Z,70.40
2018-12-20T21:53:09.645Z,70.20
2018-12-20T21:57:13.734Z,69.70
2018-12-20T22:01:17.827Z,69.00
2018-12-20T22:05:21.893Z,69.80
2018-12-20T22:09:47.645Z,70.40
2018-12-20T22:18:47.765Z,72.00
2018-12-20T22:22:51.870Z,71.70
2018-12-20T22:31:48.447Z,71.20
2018-12-20T22:35:53.541Z,70.90
2018-12-20T22:39:58.644Z,71.90
2018-12-20T22:44:02.859Z,72.20
2018-12-20T22:48:07.010Z,71.90
2018-12-20T22:52:11.152Z,71.70
2018-12-20T22:56:15.262Z,71.30
2018-12-20T23:00:19.435Z,71.20
2018-12-20T23:04:23.582Z,71.70
2018-12-20T23:08:27.682Z,71.90
2018-12-20T23:12:31.741Z,72.50
2018-12-20T23:16:35.825Z,73.80
2018-12-20T23:20:39.944Z,74.20
2018-12-20T23:24:44.013Z,73.80
2018-12-20T23:28:48.228Z,74.60
2018-12-20T23:32:52.321Z,73.80
2018-12-20T23:36:56.500Z,73.90
2018-12-20T23:41:00.597Z,73.90
2018-12-20T23:45:05.898Z,73.90
2018-12-20T23:49:09.980Z,73.60
2018-12-20T23:53:14.080Z,72.60
2018-12-20T23:57:18.158Z,73.00
